Time;durP1;ratioP1;P1;durP2;ratioP2;P2;SDS_P1;SDS_P2;PMS_P1;PMS_P2;Temp;Humidity;BMP_temperature;BMP_pressure;BME280_temperature;BME280_humidity;BME280_pressure;Samples;Min_cycle;Max_cycle;Signal;HPM_P1;HPM_P2
2022/08/26 00:01:27;;;;;;;6.95;5.57;;;21.20;99.90;21.40;100478.00;;;;4890175;28;92993;-64
2022/08/26 00:03:52;;;;;;;12.32;5.72;;;21.20;99.90;21.40;100477.00;;;;4893559;28;108348;-64
2022/08/26 00:06:19;;;;;;;10.35;6.72;;;21.20;99.90;21.40;100476.00;;;;4889846;28;123950;-64
2022/08/26 00:08:45;;;;;;;8.65;5.65;;;21.20;99.90;21.30;100478.00;;;;4892097;28;122672;-64
2022/08/26 00:11:11;;;;;;;6.32;4.68;;;21.10;99.90;21.30;100475.00;;;;4891795;28;108804;-65
2022/08/26 00:13:38;;;;;;;11.82;5.88;;;21.20;99.90;21.30;100472.00;;;;4891581;28;107829;-64
2022/08/26 00:16:06;;;;;;;10.15;6.18;;;21.10;99.90;21.30;100477.00;;;;4892384;28;93440;-64
2022/08/26 00:18:32;;;;;;;6.53;4.60;;;21.10;99.90;21.20;100476.00;;;;4893579;28;93238;-64
2022/08/26 00:20:58;;;;;;;14.02;6.03;;;21.00;99.90;21.20;100467.00;;;;4891046;28;92928;-64
2022/08/26 00:23:24;;;;;;;8.75;5.45;;;21.00;99.90;21.10;100471.00;;;;4892052;28;106402;-64
2022/08/26 00:25:51;;;;;;;8.75;6.18;;;21.00;99.90;21.10;100465.00;;;;4890880;28;111628;-64
2022/08/26 00:28:16;;;;;;;7.50;6.05;;;21.00;99.90;21.10;100476.00;;;;4890853;28;92985;-64
2022/08/26 00:30:42;;;;;;;9.35;6.32;;;20.90;99.90;21.10;100469.00;;;;4892834;28;109502;-64
2022/08/26 00:33:08;;;;;;;10.68;4.95;;;20.90;99.90;21.10;100464.00;;;;4895220;28;108045;-65
2022/08/26 00:35:34;;;;;;;8.63;6.80;;;20.90;99.90;21.00;100467.00;;;;4895756;28;92931;-64
2022/08/26 00:38:00;;;;;;;6.97;5.43;;;20.90;99.90;21.00;100469.00;;;;4893167;28;93267;-66
2022/08/26 00:40:33;;;;;;;9.32;5.35;;;20.90;99.90;21.00;100467.00;;;;4896266;28;101120;-64
2022/08/26 00:42:59;;;;;;;6.60;5.78;;;20.80;99.90;21.00;100478.00;;;;4895195;28;101729;-64
2022/08/26 00:45:26;;;;;;;12.18;6.30;;;20.80;99.90;21.00;100478.00;;;;4894201;28;109095;-64
2022/08/26 00:48:02;;;;;;;9.93;6.65;;;20.80;99.90;20.90;100476.00;;;;4894815;28;93896;-64
2022/08/26 00:50:35;;;;;;;8.10;5.88;;;20.80;99.90;20.90;100482.00;;;;4893330;28;92850;-64
2022/08/26 00:53:04;;;;;;;11.55;7.50;;;20.70;99.90;20.90;100471.00;;;;4911075;28;92628;-64
2022/08/26 00:55:39;;;;;;;12.90;6.55;;;20.70;99.90;20.80;100471.00;;;;4892600;28;114067;-64
2022/08/26 00:58:07;;;;;;;6.38;5.40;;;20.70;99.90;20.80;100468.00;;;;4895306;28;122780;-64
2022/08/26 01:00:33;;;;;;;9.18;6.60;;;20.60;99.90;20.80;100465.00;;;;4894125;28;107915;-64
2022/08/26 01:03:02;;;;;;;8.50;6.15;;;20.70;99.90;20.80;100469.00;;;;4896128;28;92960;-64
2022/08/26 01:05:29;;;;;;;10.20;6.82;;;20.60;99.90;20.80;100472.00;;;;4896657;28;92835;-64
2022/08/26 01:07:54;;;;;;;7.65;5.82;;;20.60;99.90;20.80;100470.00;;;;4895982;28;93042;-64
2022/08/26 01:10:25;;;;;;;8.13;5.90;;;20.60;99.90;20.70;100469.00;;;;4896184;28;101694;-64
2022/08/26 01:13:02;;;;;;;7.53;5.88;;;20.60;99.90;20.70;100458.00;;;;4895520;28;96036;-64
2022/08/26 01:15:38;;;;;;;6.80;6.10;;;20.50;99.90;20.70;100465.00;;;;4894264;28;93217;-65
2022/08/26 01:18:05;;;;;;;12.45;6.90;;;20.60;99.90;20.70;100465.00;;;;4909081;28;108726;-64
2022/08/26 01:21:05;;;;;;;10.68;6.93;;;20.50;99.90;20.60;100466.00;;;;4878245;28;102498;-64
2022/08/26 01:23:39;;;;;;;9.82;6.47;;;20.50;99.90;20.60;100456.00;;;;4894534;28;92613;-66
2022/08/26 01:26:10;;;;;;;6.60;5.43;;;20.50;99.90;20.60;100459.00;;;;4892394;28;114024;-64
2022/08/26 01:28:38;;;;;;;11.70;7.65;;;20.40;99.90;20.60;100461.00;;;;4894957;28;93704;-65
2022/08/26 01:31:10;;;;;;;9.45;6.25;;;20.40;99.90;20.50;100452.00;;;;4892040;28;93374;-64
2022/08/26 01:34:06;;;;;;;12.68;6.53;;;20.40;99.90;20.40;100455.00;;;;4895053;28;92924;-64
2022/08/26 01:36:32;;;;;;;8.48;6.05;;;20.40;99.90;20.40;100448.00;;;;4870378;28;93192;-64
2022/08/26 01:38:57;;;;;;;8.75;6.13;;;20.30;99.90;20.40;100448.00;;;;4894320;28;122501;-64
2022/08/26 01:41:24;;;;;;;13.55;7.43;;;20.30;99.90;20.40;100453.00;;;;4891980;28;108788;-64
2022/08/26 01:43:53;;;;;;;10.00;6.78;;;20.20;99.90;20.40;100450.00;;;;4892972;28;93031;-64
2022/08/26 01:46:21;;;;;;;13.20;6.63;;;20.20;99.90;20.40;100456.00;;;;4877386;28;93351;-64
2022/08/26 01:48:50;;;;;;;11.55;7.32;;;20.20;99.90;20.30;100447.00;;;;4893864;28;112353;-64
2022/08/26 01:51:18;;;;;;;9.85;6.10;;;20.20;99.90;20.30;100451.00;;;;4876613;28;104526;-64
2022/08/26 01:53:44;;;;;;;11.23;7.13;;;20.20;99.90;20.30;100448.00;;;;4893829;28;93173;-65
2022/08/26 01:56:11;;;;;;;6.88;5.57;;;20.10;99.90;20.30;100454.00;;;;4893437;28;120465;-65
2022/08/26 01:58:44;;;;;;;8.35;7.50;;;20.10;99.90;20.20;100447.00;;;;4907507;28;115534;-65
2022/08/26 02:01:12;;;;;;;8.82;7.20;;;20.10;99.90;20.20;100451.00;;;;4874744;28;93037;-65
2022/08/26 02:04:17;;;;;;;6.47;4.72;;;20.10;99.90;20.20;100448.00;;;;4891071;28;98120;-65
2022/08/26 02:06:44;;;;;;;9.02;6.05;;;20.10;99.90;20.20;100444.00;;;;4876166;28;95196;-65
2022/08/26 02:09:11;;;;;;;13.75;6.93;;;20.10;99.90;20.20;100449.00;;;;4893866;28;119225;-65
2022/08/26 02:11:37;;;;;;;12.77;6.15;;;20.10;99.90;20.20;100451.00;;;;4884074;28;93444;-66
2022/08/26 02:14:10;;;;;;;13.35;6.82;;;20.00;99.90;20.20;100449.00;;;;4895184;28;92881;-65
2022/08/26 02:16:40;;;;;;;8.45;5.75;;;20.00;99.90;20.20;100451.00;;;;4890504;28;112402;-65
2022/08/26 02:19:13;;;;;;;8.85;6.35;;;20.00;99.90;20.10;100449.00;;;;4892588;28;92976;-65
2022/08/26 02:21:40;;;;;;;11.40;7.13;;;20.00;99.90;20.10;100442.00;;;;4890686;28;92065;-65
2022/08/26 02:24:13;;;;;;;9.13;6.57;;;20.00;99.90;20.10;100437.00;;;;4908349;28;92974;-65
2022/08/26 02:26:41;;;;;;;8.98;5.88;;;20.00;99.90;20.10;100437.00;;;;4892889;28;109003;-65
2022/08/26 02:29:24;;;;;;;8.93;6.60;;;20.00;99.90;20.10;100441.00;;;;4887013;28;112410;-65
2022/08/26 02:31:54;;;;;;;11.85;6.18;;;20.00;99.90;20.10;100434.00;;;;4906900;28;92966;-66
2022/08/26 02:34:25;;;;;;;10.98;6.70;;;19.90;99.90;20.10;100437.00;;;;4895096;28;93248;-65
2022/08/26 02:36:51;;;;;;;7.32;5.28;;;19.90;99.90;20.00;100439.00;;;;4891713;28;115981;-65
2022/08/26 02:39:17;;;;;;;10.77;7.80;;;19.90;99.90;20.00;100443.00;;;;4892737;28;123656;-65
2022/08/26 02:41:44;;;;;;;10.68;5.55;;;19.90;99.90;20.00;100432.00;;;;4893448;28;102577;-65
2022/08/26 02:44:10;;;;;;;9.80;7.30;;;19.90;99.90;20.00;100433.00;;;;4892708;28;93330;-66
2022/08/26 02:46:36;;;;;;;15.50;7.38;;;19.80;99.90;20.00;100432.00;;;;4894039;28;93040;-65
2022/08/26 02:49:03;;;;;;;9.85;6.85;;;19.80;99.90;19.90;100436.00;;;;4875728;28;93342;-65
2022/08/26 02:51:28;;;;;;;9.65;5.97;;;19.80;99.90;19.90;100430.00;;;;4893765;28;92885;-65
2022/08/26 02:53:55;;;;;;;6.88;5.40;;;19.80;99.90;19.90;100436.00;;;;4893030;28;109928;-65
2022/08/26 02:56:21;;;;;;;13.13;7.60;;;19.80;99.90;19.90;100427.00;;;;4892867;28;93229;-65
2022/08/26 02:58:47;;;;;;;13.10;7.72;;;19.70;99.90;19.90;100432.00;;;;4893939;28;113492;-65
2022/08/26 03:01:28;;;;;;;12.27;6.90;;;19.70;99.90;19.90;100430.00;;;;4893231;28;109956;-65
2022/08/26 03:03:54;;;;;;;8.57;6.70;;;19.70;99.90;19.90;100433.00;;;;4893826;28;92913;-66
2022/08/26 03:06:21;;;;;;;10.68;7.10;;;19.70;99.90;19.80;100433.00;;;;4894987;28;92989;-65
2022/08/26 03:08:46;;;;;;;8.32;6.97;;;19.70;99.90;19.80;100430.00;;;;4893288;28;123230;-66
2022/08/26 03:11:13;;;;;;;6.50;5.75;;;19.70;99.90;19.80;100434.00;;;;4892765;28;92095;-65
2022/08/26 03:13:39;;;;;;;14.77;7.03;;;19.60;99.90;19.80;100429.00;;;;4894240;28;93153;-65
2022/08/26 03:16:06;;;;;;;8.65;5.75;;;19.70;99.90;19.80;100432.00;;;;4893128;28;101911;-65
2022/08/26 03:18:32;;;;;;;12.27;6.75;;;19.70;99.90;19.80;100423.00;;;;4892599;28;113539;-65
2022/08/26 03:21:04;;;;;;;7.10;6.40;;;19.60;99.90;19.80;100417.00;;;;4894001;28;92852;-65
2022/08/26 03:23:31;;;;;;;12.65;6.85;;;19.60;99.90;19.70;100418.00;;;;4894372;28;93180;-65
2022/08/26 03:25:57;;;;;;;6.82;5.70;;;19.60;99.90;19.70;100419.00;;;;4889953;28;111699;-65
2022/08/26 03:28:23;;;;;;;17.85;7.05;;;19.60;99.90;19.70;100418.00;;;;4893334;28;121174;-65
2022/08/26 03:30:49;;;;;;;9.85;6.43;;;19.60;99.90;19.70;100406.00;;;;4907467;28;93039;-65
2022/08/26 03:33:14;;;;;;;15.25;6.97;;;19.60;99.90;19.70;100409.00;;;;4893213;28;108428;-65
2022/08/26 03:35:43;;;;;;;8.32;7.30;;;19.50;99.90;19.60;100409.00;;;;4888494;28;109880;-65
2022/08/26 03:38:09;;;;;;;7.07;5.85;;;19.50;99.90;19.60;100402.00;;;;4893162;28;92768;-66
2022/08/26 03:40:36;;;;;;;8.90;5.82;;;19.50;99.90;19.60;100402.00;;;;4893717;28;93192;-66
2022/08/26 03:43:04;;;;;;;13.75;6.03;;;19.50;99.90;19.60;100409.00;;;;4892808;28;93853;-65
2022/08/26 03:45:30;;;;;;;7.95;6.53;;;19.50;99.90;19.60;100411.00;;;;4892750;28;94311;-65
2022/08/26 03:47:56;;;;;;;8.48;6.50;;;19.40;99.90;19.60;100409.00;;;;4894012;28;93272;-65
2022/08/26 03:50:23;;;;;;;8.30;5.65;;;19.40;99.90;19.60;100409.00;;;;4893284;28;92620;-65
2022/08/26 03:52:50;;;;;;;11.27;6.05;;;19.40;99.90;19.50;100413.00;;;;4892873;28;93062;-65
2022/08/26 03:55:18;;;;;;;15.90;6.13;;;19.40;99.90;19.50;100419.00;;;;4894233;28;93536;-65
2022/08/26 03:57:44;;;;;;;8.93;6.82;;;19.40;99.90;19.50;100408.00;;;;4892447;28;112287;-65
2022/08/26 04:00:14;;;;;;;8.02;5.75;;;19.40;99.90;19.50;100413.00;;;;4893079;28;111932;-65
2022/08/26 04:02:44;;;;;;;7.63;5.90;;;19.40;99.90;19.50;100419.00;;;;4892660;28;93082;-66
2022/08/26 04:05:12;;;;;;;9.65;6.97;;;19.40;99.90;19.50;100420.00;;;;4890583;28;92740;-65
2022/08/26 04:07:39;;;;;;;7.55;5.97;;;19.40;99.90;19.50;100419.00;;;;4895873;28;93934;-65
2022/08/26 04:10:06;;;;;;;7.65;6.43;;;19.30;99.90;19.50;100424.00;;;;4896998;28;92843;-65
2022/08/26 04:12:32;;;;;;;12.00;6.72;;;19.30;99.90;19.50;100410.00;;;;4879884;28;92709;-66
2022/08/26 04:14:58;;;;;;;6.70;5.50;;;19.30;99.90;19.50;100413.00;;;;4898421;28;120375;-65
2022/08/26 04:17:25;;;;;;;11.93;6.85;;;19.30;99.90;19.40;100410.00;;;;4898089;28;123288;-65
2022/08/26 04:19:52;;;;;;;7.68;6.05;;;19.30;99.90;19.40;100410.00;;;;4898549;28;92979;-65
2022/08/26 04:22:18;;;;;;;8.10;6.22;;;19.30;99.90;19.40;100413.00;;;;4900109;28;92760;-66
2022/08/26 04:24:45;;;;;;;9.10;6.88;;;19.30;99.90;19.40;100413.00;;;;4895819;28;93542;-65
2022/08/26 04:27:11;;;;;;;8.25;6.15;;;19.30;99.90;19.40;100410.00;;;;4898942;28;93301;-65
2022/08/26 04:29:40;;;;;;;9.30;6.07;;;19.30;99.90;19.40;100408.00;;;;4894855;28;110670;-66
2022/08/26 04:32:07;;;;;;;8.05;6.18;;;19.30;99.90;19.40;100414.00;;;;4895394;28;93857;-65
2022/08/26 04:34:34;;;;;;;7.15;5.95;;;19.30;99.90;19.40;100410.00;;;;4895514;28;93705;-65
2022/08/26 04:37:00;;;;;;;12.02;7.07;;;19.30;99.90;19.50;100419.00;;;;4890579;28;93705;-65
2022/08/26 04:39:26;;;;;;;7.35;6.65;;;19.30;99.90;19.50;100417.00;;;;4891737;28;93015;-65
2022/08/26 04:41:55;;;;;;;8.70;6.93;;;19.30;99.90;19.50;100416.00;;;;4891568;28;92798;-65
2022/08/26 04:44:24;;;;;;;9.68;6.85;;;19.40;99.90;19.60;100409.00;;;;4891671;28;93515;-65
2022/08/26 04:46:50;;;;;;;7.45;5.78;;;19.40;99.90;19.60;100402.00;;;;4890327;28;93919;-65
2022/08/26 04:49:16;;;;;;;7.40;5.55;;;19.40;99.90;19.70;100403.00;;;;4906696;28;92354;-66
2022/08/26 04:51:42;;;;;;;6.13;5.40;;;19.50;99.90;19.70;100406.00;;;;4865755;28;108935;-65
2022/08/26 04:54:08;;;;;;;10.50;6.40;;;19.60;99.90;19.80;100408.00;;;;4890817;28;122978;-66
2022/08/26 04:56:41;;;;;;;7.40;5.13;;;19.60;99.90;19.90;100405.00;;;;4872307;28;94311;-65
2022/08/26 04:59:14;;;;;;;7.15;6.43;;;19.70;99.90;19.90;100405.00;;;;4891688;28;92785;-65
2022/08/26 05:01:47;;;;;;;9.65;6.72;;;19.70;99.90;20.00;100404.00;;;;4891388;28;93091;-65
2022/08/26 05:04:13;;;;;;;11.45;6.45;;;19.80;99.90;20.00;100393.00;;;;4891296;28;94074;-65
2022/08/26 05:06:39;;;;;;;7.88;5.80;;;19.80;99.90;20.10;100395.00;;;;4888079;28;94037;-64
2022/08/26 05:09:05;;;;;;;8.82;5.75;;;19.90;99.90;20.20;100385.00;;;;4891516;28;110962;-65
2022/08/26 05:11:31;;;;;;;11.90;5.25;;;20.00;99.90;20.30;100393.00;;;;4894995;28;92918;-65
2022/08/26 05:13:56;;;;;;;7.30;6.60;;;20.00;99.90;20.30;100393.00;;;;4895613;28;93001;-66
2022/08/26 05:16:22;;;;;;;9.20;5.70;;;20.10;99.90;20.40;100388.00;;;;4893608;28;92836;-65
2022/08/26 05:18:48;;;;;;;9.68;6.20;;;20.20;99.90;20.50;100399.00;;;;4891279;28;109453;-65
2022/08/26 05:21:24;;;;;;;10.80;6.78;;;20.20;99.90;20.50;100397.00;;;;4890362;28;93812;-65
2022/08/26 05:23:51;;;;;;;9.82;6.63;;;20.30;99.90;20.60;100398.00;;;;4893629;28;94132;-65
2022/08/26 05:26:18;;;;;;;8.52;5.68;;;20.40;99.90;20.70;100391.00;;;;4893535;28;93392;-65
2022/08/26 05:28:44;;;;;;;17.02;5.88;;;20.40;99.90;20.70;100399.00;;;;4894679;28;100222;-65
2022/08/26 05:31:17;;;;;;;11.30;6.53;;;20.50;99.90;20.80;100408.00;;;;4894255;28;92939;-65
2022/08/26 05:33:44;;;;;;;9.57;6.15;;;20.60;99.90;20.80;100411.00;;;;4891941;28;116113;-65
2022/08/26 05:36:15;;;;;;;9.35;7.35;;;20.60;99.90;20.90;100417.00;;;;4875525;28;93179;-65
2022/08/26 05:38:42;;;;;;;5.68;5.10;;;20.70;99.90;20.90;100413.00;;;;4894985;28;92321;-64
2022/08/26 05:41:17;;;;;;;7.43;6.50;;;20.50;99.90;20.90;100405.00;;;;4893401;28;92783;-64
2022/08/26 05:43:43;;;;;;;8.30;5.78;;;20.70;99.90;20.90;100410.00;;;;4894645;28;94531;-64
2022/08/26 05:46:09;;;;;;;8.85;7.70;;;20.70;99.90;20.90;100411.00;;;;4891120;28;93804;-66
2022/08/26 05:48:35;;;;;;;10.15;7.03;;;20.70;99.90;20.90;100415.00;;;;4894132;28;101155;-65
2022/08/26 05:51:04;;;;;;;7.63;6.43;;;20.70;99.90;21.00;100417.00;;;;4894263;28;93336;-65
2022/08/26 05:53:31;;;;;;;8.60;6.00;;;20.80;99.90;21.00;100415.00;;;;4894546;28;93228;-65
2022/08/26 05:55:57;;;;;;;11.30;6.05;;;20.80;99.90;21.00;100418.00;;;;4893505;28;93766;-66
2022/08/26 05:58:24;;;;;;;11.88;7.70;;;20.80;99.90;21.00;100409.00;;;;4894507;28;92994;-65
2022/08/26 06:01:16;;;;;;;11.82;6.15;;;20.80;99.90;21.10;100418.00;;;;4893915;28;94793;-65
2022/08/26 06:03:46;;;;;;;13.25;8.43;;;20.80;99.90;21.10;100413.00;;;;4893788;28;100906;-65
2022/08/26 06:06:19;;;;;;;8.27;5.75;;;20.90;99.90;21.10;100414.00;;;;4893683;28;92925;-65
2022/08/26 06:08:46;;;;;;;15.95;8.38;;;20.90;99.90;21.10;100420.00;;;;4894510;28;93221;-65
2022/08/26 06:11:14;;;;;;;13.57;7.97;;;20.90;99.90;21.10;100414.00;;;;4893119;28;94640;-65
2022/08/26 06:13:40;;;;;;;12.18;6.38;;;20.90;99.90;21.20;100419.00;;;;4894038;28;93236;-65
2022/08/26 06:16:11;;;;;;;9.10;7.10;;;20.90;99.90;21.20;100426.00;;;;4892942;28;93988;-65
2022/08/26 06:18:41;;;;;;;12.23;7.65;;;20.90;99.90;21.20;100416.00;;;;4891642;28;93308;-65
2022/08/26 06:21:20;;;;;;;10.63;7.05;;;21.00;99.90;21.30;100417.00;;;;4891024;28;92911;-65
2022/08/26 06:26:34;;;;;;;13.80;7.90;;;21.10;99.90;21.40;100425.00;;;;4891988;28;93334;-66
2022/08/26 06:29:01;;;;;;;10.25;7.63;;;21.10;99.90;21.40;100414.00;;;;4893343;28;92155;-65
2022/08/26 06:31:27;;;;;;;13.60;9.13;;;21.20;99.90;21.50;100419.00;;;;4893596;28;92612;-65
2022/08/26 06:33:53;;;;;;;10.93;7.15;;;21.20;99.90;21.60;100417.00;;;;4891352;28;111249;-65
2022/08/26 06:36:24;;;;;;;14.07;8.57;;;21.30;99.90;21.70;100410.00;;;;4892148;28;122706;-65
2022/08/26 06:38:51;;;;;;;12.75;8.00;;;21.40;99.90;21.70;100417.00;;;;4893303;28;92803;-65
2022/08/26 06:41:22;;;;;;;9.77;7.10;;;21.50;99.90;21.90;100411.00;;;;4893261;28;93114;-65
2022/08/26 06:43:48;;;;;;;13.30;7.25;;;21.60;99.90;22.00;100417.00;;;;4893434;28;94015;-65
2022/08/26 06:46:17;;;;;;;10.10;7.80;;;21.70;99.90;22.10;100412.00;;;;4892818;28;94208;-65
2022/08/26 06:48:43;;;;;;;12.00;8.00;;;21.80;99.90;22.20;100415.00;;;;4893934;28;92797;-65
2022/08/26 06:51:13;;;;;;;12.20;6.85;;;21.90;99.90;22.30;100408.00;;;;4892745;28;102654;-65
2022/08/26 06:53:44;;;;;;;12.23;7.85;;;22.00;99.90;22.40;100413.00;;;;4893568;28;105561;-65
2022/08/26 06:56:10;;;;;;;11.38;7.45;;;22.10;99.90;22.50;100410.00;;;;4893159;28;92752;-66
2022/08/26 06:58:38;;;;;;;13.88;8.50;;;22.20;99.90;22.70;100411.00;;;;4893918;28;93203;-66
2022/08/26 07:01:23;;;;;;;22.13;8.43;;;22.40;99.90;22.80;100409.00;;;;4891096;28;93828;-65
2022/08/26 07:03:52;;;;;;;14.13;7.30;;;22.50;99.90;22.90;100403.00;;;;4892081;28;93050;-66
2022/08/26 07:06:18;;;;;;;8.48;6.60;;;22.60;99.90;23.10;100397.00;;;;4892168;28;92960;-65
2022/08/26 07:08:46;;;;;;;10.02;7.13;;;22.80;99.90;23.20;100407.00;;;;4894272;28;93521;-66
2022/08/26 07:11:12;;;;;;;11.85;7.20;;;22.90;99.90;23.30;100411.00;;;;4891011;28;92987;-65
2022/08/26 07:13:38;;;;;;;9.73;7.93;;;23.00;99.90;23.50;100410.00;;;;4891127;28;122356;-65
2022/08/26 07:16:05;;;;;;;13.52;6.90;;;23.20;99.90;23.60;100406.00;;;;4892689;28;95802;-65
2022/08/26 07:18:34;;;;;;;17.17;8.10;;;23.30;99.90;23.70;100412.00;;;;4894167;28;92270;-65
2022/08/26 07:21:02;;;;;;;13.30;7.32;;;23.40;99.90;23.80;100410.00;;;;4893315;28;93201;-65
2022/08/26 07:23:27;;;;;;;12.15;8.38;;;23.50;99.90;23.90;100412.00;;;;4892771;28;94001;-65
2022/08/26 07:25:53;;;;;;;11.45;8.38;;;23.60;99.90;24.00;100408.00;;;;4890233;28;94186;-65
2022/08/26 07:28:19;;;;;;;25.35;8.40;;;23.70;99.90;24.20;100403.00;;;;4891878;28;110106;-65
2022/08/26 07:30:44;;;;;;;8.82;6.88;;;23.80;99.90;24.30;100405.00;;;;4887979;28;108322;-65
2022/08/26 07:33:10;;;;;;;9.45;7.45;;;24.00;99.90;24.50;100406.00;;;;4891857;28;121794;-65
2022/08/26 07:35:36;;;;;;;14.05;6.68;;;24.10;99.90;24.60;100402.00;;;;4889861;28;123028;-65
2022/08/26 07:38:02;;;;;;;7.22;6.50;;;24.30;99.90;24.80;100412.00;;;;4893468;28;92874;-64
2022/08/26 07:40:29;;;;;;;9.88;7.65;;;24.40;99.90;25.00;100414.00;;;;4890917;28;92716;-64
2022/08/26 07:42:54;;;;;;;9.18;6.60;;;24.60;99.90;25.10;100407.00;;;;4893317;28;92546;-64
2022/08/26 07:45:20;;;;;;;9.88;7.18;;;24.70;99.90;25.30;100413.00;;;;4890454;28;114831;-65
2022/08/26 07:47:46;;;;;;;9.02;7.10;;;24.90;99.90;25.40;100406.00;;;;4892093;28;100342;-64
2022/08/26 07:50:12;;;;;;;12.07;7.43;;;25.10;99.90;25.50;100412.00;;;;4892331;28;93681;-65
2022/08/26 07:52:38;;;;;;;10.52;7.47;;;25.20;99.90;25.60;100407.00;;;;4891556;28;111621;-64
2022/08/26 07:55:07;;;;;;;15.25;7.20;;;25.20;99.90;25.70;100417.00;;;;4892094;28;92959;-65
2022/08/26 07:57:33;;;;;;;11.52;6.78;;;25.40;99.90;25.80;100414.00;;;;4891062;28;93105;-64
2022/08/26 08:00:00;;;;;;;9.35;6.25;;;25.50;99.90;26.00;100408.00;;;;4892524;28;93599;-65
2022/08/26 08:02:28;;;;;;;9.32;6.47;;;25.60;99.90;26.10;100411.00;;;;4892074;28;93842;-65
2022/08/26 08:04:55;;;;;;;11.45;7.25;;;25.70;99.90;26.20;100413.00;;;;4891455;28;93347;-66
2022/08/26 08:07:22;;;;;;;11.20;6.95;;;25.80;99.90;26.20;100414.00;;;;4892682;28;92078;-65
2022/08/26 08:09:48;;;;;;;12.73;7.22;;;25.90;99.90;26.30;100407.00;;;;4891871;28;107676;-66
2022/08/26 08:12:16;;;;;;;11.68;6.68;;;26.00;99.90;26.40;100410.00;;;;4891746;28;94014;-65
2022/08/26 08:14:44;;;;;;;9.27;6.57;;;26.10;99.90;26.60;100404.00;;;;4889889;28;94022;-65
2022/08/26 08:17:10;;;;;;;14.85;7.72;;;26.20;99.90;26.90;100408.00;;;;4892526;28;92828;-65
2022/08/26 08:19:36;;;;;;;15.80;6.68;;;26.50;99.90;27.20;100403.00;;;;4891997;28;93008;-65
2022/08/26 08:22:04;;;;;;;11.02;7.05;;;26.70;99.90;27.60;100399.00;;;;4891375;28;123092;-65
2022/08/26 08:24:32;;;;;;;9.27;6.10;;;27.10;99.90;28.00;100405.00;;;;4891265;28;93247;-66
2022/08/26 08:27:01;;;;;;;12.55;6.30;;;27.50;99.90;28.40;100396.00;;;;4892351;28;93445;-65
2022/08/26 08:29:29;;;;;;;8.90;4.63;;;27.90;99.90;28.80;100400.00;;;;4892994;28;93387;-65
2022/08/26 08:31:56;;;;;;;9.40;6.32;;;28.30;99.90;29.30;100398.00;;;;4892024;28;92065;-65
2022/08/26 08:34:24;;;;;;;8.93;5.95;;;28.70;99.90;29.70;100387.00;;;;4891339;28;120789;-65
2022/08/26 08:36:50;;;;;;;9.35;6.55;;;29.10;99.90;30.00;100393.00;;;;4892577;28;92571;-65
2022/08/26 08:39:16;;;;;;;10.70;6.57;;;29.50;99.90;30.40;100389.00;;;;4892073;28;93907;-65
2022/08/26 08:42:06;;;;;;;10.73;5.53;;;29.90;99.90;30.80;100380.00;;;;4890627;28;123379;-65
2022/08/26 08:44:36;;;;;;;12.68;5.35;;;30.30;99.90;31.10;100381.00;;;;4873191;28;92907;-65
2022/08/26 08:47:18;;;;;;;13.13;4.95;;;30.60;99.90;31.30;100381.00;;;;4889545;28;93088;-66
2022/08/26 08:49:44;;;;;;;12.98;5.32;;;30.80;99.90;31.60;100374.00;;;;4890278;28;92904;-67
2022/08/26 08:52:28;;;;;;;15.13;5.10;;;31.10;99.90;31.90;100376.00;;;;4889328;28;122963;-68
2022/08/26 08:54:55;;;;;;;11.55;3.72;;;31.40;98.60;32.10;100369.00;;;;4893042;28;93979;-68
2022/08/26 08:58:07;;;;;;;6.10;3.42;;;31.70;97.00;32.40;100371.00;;;;4878027;28;92044;-68
2022/08/26 09:00:48;;;;;;;7.20;3.97;;;31.90;95.80;32.70;100374.00;;;;4870121;28;92914;-68
2022/08/26 09:03:38;;;;;;;5.57;3.75;;;32.20;93.90;32.90;100371.00;;;;4874504;28;94188;-68
2022/08/26 09:06:15;;;;;;;6.75;4.35;;;32.40;92.00;33.10;100370.00;;;;4873194;28;110633;-68
2022/08/26 09:08:44;;;;;;;4.05;3.03;;;32.50;89.10;33.30;100376.00;;;;4878903;28;92820;-68
2022/08/26 09:11:10;;;;;;;7.03;2.85;;;32.70;87.30;33.50;100375.00;;;;4891436;28;93236;-68
2022/08/26 09:13:37;;;;;;;7.35;3.20;;;32.90;85.70;33.70;100369.00;;;;4876301;28;122715;-68
2022/08/26 09:16:17;;;;;;;13.93;3.53;;;33.10;83.80;34.00;100355.00;;;;4875703;28;122545;-68
2022/08/26 09:19:13;;;;;;;9.25;3.95;;;33.40;81.10;34.10;100357.00;;;;4906383;28;92845;-68
2022/08/26 09:21:38;;;;;;;7.43;3.70;;;33.60;78.40;34.20;100361.00;;;;4891422;28;93005;-68
2022/08/26 09:24:05;;;;;;;5.45;3.33;;;33.70;77.30;34.40;100363.00;;;;4895310;28;122483;-68
2022/08/26 09:26:44;;;;;;;4.05;2.85;;;33.80;76.50;34.70;100354.00;;;;4893134;28;93125;-68
2022/08/26 09:29:34;;;;;;;8.05;3.67;;;34.00;73.10;34.80;100354.00;;;;4896207;28;92838;-69
2022/08/26 09:32:24;;;;;;;5.80;3.55;;;34.20;73.70;35.00;100352.00;;;;4872007;28;94189;-68
2022/08/26 09:35:08;;;;;;;9.45;4.30;;;34.40;70.60;35.00;100349.00;;;;4890316;28;120233;-68
2022/08/26 09:37:45;;;;;;;6.22;3.55;;;34.50;67.70;35.00;100349.00;;;;4891705;28;92720;-68
2022/08/26 09:40:15;;;;;;;11.45;4.22;;;34.50;69.00;35.30;100352.00;;;;4893594;28;92856;-68
2022/08/26 09:42:40;;;;;;;6.57;3.47;;;34.60;67.00;35.40;100354.00;;;;4893399;28;92833;-68
2022/08/26 09:45:10;;;;;;;12.48;4.38;;;34.80;66.40;35.50;100362.00;;;;4892812;28;115732;-68
2022/08/26 09:47:45;;;;;;;10.50;3.63;;;34.90;66.70;35.80;100355.00;;;;4893812;28;93803;-68
2022/08/26 09:50:55;;;;;;;3.90;3.22;;;35.10;64.60;35.80;100354.00;;;;4895292;28;92348;-68
2022/08/26 09:53:25;;;;;;;11.30;3.45;;;35.20;62.60;35.70;100349.00;;;;4883942;28;93156;-68
2022/08/26 09:56:11;;;;;;;6.07;3.60;;;35.20;63.70;35.50;100341.00;;;;4894541;28;94327;-68
2022/08/26 09:58:41;;;;;;;7.32;3.85;;;35.10;62.50;35.30;100342.00;;;;4889914;28;104754;-68
2022/08/26 10:01:24;;;;;;;7.18;4.25;;;34.90;63.50;35.20;100347.00;;;;4888505;28;103150;-68
2022/08/26 10:03:50;;;;;;;9.07;4.40;;;34.70;64.30;35.10;100344.00;;;;4893645;28;93078;-68
2022/08/26 10:06:16;;;;;;;3.90;3.20;;;34.60;64.20;34.80;100337.00;;;;4893580;28;123414;-68
2022/08/26 10:08:47;;;;;;;3.75;2.83;;;34.50;62.90;34.50;100326.00;;;;4893140;28;122826;-69
2022/08/26 10:11:42;;;;;;;6.35;3.22;;;34.20;63.40;34.10;100318.00;;;;4890976;28;103146;-68
2022/08/26 10:14:26;;;;;;;5.40;3.88;;;33.90;63.60;33.70;100319.00;;;;4876410;28;93183;-68
2022/08/26 10:17:26;;;;;;;9.18;3.50;;;33.40;64.80;33.40;100321.00;;;;4893430;28;109351;-68
2022/08/26 10:20:01;;;;;;;9.60;3.67;;;33.10;64.90;33.20;100318.00;;;;4891959;28;106851;-68
2022/08/26 10:22:58;;;;;;;9.65;3.22;;;32.90;66.10;33.00;100317.00;;;;4887867;28;93066;-68
2022/08/26 10:25:32;;;;;;;4.82;3.65;;;32.70;66.80;32.80;100302.00;;;;4890620;28;93947;-68
2022/08/26 10:28:19;;;;;;;7.45;3.28;;;32.50;67.20;32.60;100304.00;;;;4873933;28;93750;-68
2022/08/26 10:30:50;;;;;;;4.50;3.72;;;32.30;68.00;32.40;100297.00;;;;4845665;28;94884;-68
2022/08/26 10:33:17;;;;;;;5.88;3.88;;;32.00;68.70;32.20;100289.00;;;;4892219;28;92909;-68
2022/08/26 10:35:57;;;;;;;5.07;3.90;;;31.90;69.10;31.90;100292.00;;;;4894108;28;93043;-68
2022/08/26 10:38:37;;;;;;;7.43;4.38;;;31.60;69.80;31.60;100300.00;;;;4892138;28;93205;-69
2022/08/26 10:41:23;;;;;;;7.35;4.00;;;31.30;70.70;31.40;100291.00;;;;4889770;28;92935;-68
2022/08/26 10:43:57;;;;;;;11.35;4.30;;;31.10;71.50;31.20;100287.00;;;;4890182;28;92414;-68
2022/08/26 10:46:28;;;;;;;4.35;3.70;;;30.90;72.70;31.00;100290.00;;;;4894485;28;92755;-67
2022/08/26 10:49:05;;;;;;;5.80;4.05;;;30.70;74.70;29.90;100288.00;;;;4874851;28;93575;-68
2022/08/26 10:51:40;;;;;;;10.35;4.80;;;30.00;78.50;28.70;100283.00;;;;4870664;28;93798;-68
2022/08/26 10:54:42;;;;;;;9.43;4.43;;;29.00;84.50;27.50;100277.00;;;;4891516;28;92984;-68
2022/08/26 10:57:48;;;;;;;10.48;5.75;;;27.90;90.80;27.10;100270.00;;;;4872799;28;92965;-69
2022/08/26 11:03:47;;;;;;;14.88;5.50;;;26.90;99.90;26.70;100262.00;;;;4873001;28;93134;-69